sensor_id;sensor_type;location;lat;lon;timestamp;P1;durP1;ratioP1;P2;durP2;ratioP2
10343;SDS011;5217;43.960;10.954;2022-08-01T00:01:31;1.88;;;1.75;;
10343;SDS011;5217;43.960;10.954;2022-08-01T00:03:59;1.90;;;1.70;;
10343;SDS011;5217;43.960;10.954;2022-08-01T00:06:28;1.75;;;1.65;;
10343;SDS011;5217;43.960;10.954;2022-08-01T00:08:58;1.83;;;1.70;;
10343;SDS011;5217;43.960;10.954;2022-08-01T00:11:27;1.58;;;1.48;;
10343;SDS011;5217;43.960;10.954;2022-08-01T00:13:55;1.77;;;1.52;;
10343;SDS011;5217;43.960;10.954;2022-08-01T00:16:24;2.78;;;1.65;;
10343;SDS011;5217;43.960;10.954;2022-08-01T00:18:52;2.58;;;1.60;;
10343;SDS011;5217;43.960;10.954;2022-08-01T00:21:21;2.00;;;1.70;;
10343;SDS011;5217;43.960;10.954;2022-08-01T00:23:50;2.53;;;1.73;;
10343;SDS011;5217;43.960;10.954;2022-08-01T00:26:20;6.45;;;1.85;;
10343;SDS011;5217;43.960;10.954;2022-08-01T00:28:48;3.40;;;1.63;;
10343;SDS011;5217;43.960;10.954;2022-08-01T00:31:17;2.35;;;1.60;;
10343;SDS011;5217;43.960;10.954;2022-08-01T00:33:46;1.90;;;1.80;;
10343;SDS011;5217;43.960;10.954;2022-08-01T00:36:15;2.92;;;1.83;;
10343;SDS011;5217;43.960;10.954;2022-08-01T00:38:44;1.88;;;1.77;;
10343;SDS011;5217;43.960;10.954;2022-08-01T00:41:12;1.60;;;1.50;;
10343;SDS011;5217;43.960;10.954;2022-08-01T00:43:42;1.60;;;1.48;;
10343;SDS011;5217;43.960;10.954;2022-08-01T00:46:11;1.60;;;1.50;;
10343;SDS011;5217;43.960;10.954;2022-08-01T00:48:39;1.80;;;1.67;;
10343;SDS011;5217;43.960;10.954;2022-08-01T00:51:08;2.22;;;1.80;;
10343;SDS011;5217;43.960;10.954;2022-08-01T00:53:37;3.00;;;1.70;;
10343;SDS011;5217;43.960;10.954;2022-08-01T00:56:17;3.15;;;1.42;;
10343;SDS011;5217;43.960;10.954;2022-08-01T00:58:48;1.85;;;1.70;;
10343;SDS011;5217;43.960;10.954;2022-08-01T01:01:17;1.67;;;1.58;;
10343;SDS011;5217;43.960;10.954;2022-08-01T01:03:48;1.60;;;1.50;;
10343;SDS011;5217;43.960;10.954;2022-08-01T01:06:26;2.00;;;1.80;;
10343;SDS011;5217;43.960;10.954;2022-08-01T01:09:06;1.52;;;1.42;;
10343;SDS011;5217;43.960;10.954;2022-08-01T01:11:46;1.70;;;1.60;;
10343;SDS011;5217;43.960;10.954;2022-08-01T01:14:23;2.08;;;1.65;;
10343;SDS011;5217;43.960;10.954;2022-08-01T01:16:58;1.77;;;1.67;;
10343;SDS011;5217;43.960;10.954;2022-08-01T01:19:28;1.58;;;1.48;;
10343;SDS011;5217;43.960;10.954;2022-08-01T01:22:08;1.52;;;1.42;;
10343;SDS011;5217;43.960;10.954;2022-08-01T01:25:02;1.60;;;1.50;;
10343;SDS011;5217;43.960;10.954;2022-08-01T01:27:39;2.40;;;1.70;;
10343;SDS011;5217;43.960;10.954;2022-08-01T01:30:16;1.60;;;1.50;;
10343;SDS011;5217;43.960;10.954;2022-08-01T01:32:46;1.88;;;1.70;;
10343;SDS011;5217;43.960;10.954;2022-08-01T01:35:19;2.28;;;1.75;;
10343;SDS011;5217;43.960;10.954;2022-08-01T01:37:53;1.70;;;1.60;;
10343;SDS011;5217;43.960;10.954;2022-08-01T01:40:25;1.50;;;1.40;;
10343;SDS011;5217;43.960;10.954;2022-08-01T01:42:55;1.70;;;1.60;;
10343;SDS011;5217;43.960;10.954;2022-08-01T01:45:25;2.33;;;1.65;;
10343;SDS011;5217;43.960;10.954;2022-08-01T01:47:56;1.50;;;1.40;;
10343;SDS011;5217;43.960;10.954;2022-08-01T01:50:26;1.70;;;1.60;;
10343;SDS011;5217;43.960;10.954;2022-08-01T01:52:57;1.83;;;1.60;;
10343;SDS011;5217;43.960;10.954;2022-08-01T01:55:27;1.65;;;1.55;;
10343;SDS011;5217;43.960;10.954;2022-08-01T01:57:57;1.80;;;1.70;;
10343;SDS011;5217;43.960;10.954;2022-08-01T02:00:28;2.63;;;1.70;;
10343;SDS011;5217;43.960;10.954;2022-08-01T02:02:58;1.92;;;1.60;;
10343;SDS011;5217;43.960;10.954;2022-08-01T02:05:29;2.35;;;1.58;;
10343;SDS011;5217;43.960;10.954;2022-08-01T02:08:00;2.40;;;1.83;;
10343;SDS011;5217;43.960;10.954;2022-08-01T02:10:30;2.15;;;1.77;;
10343;SDS011;5217;43.960;10.954;2022-08-01T02:13:01;2.22;;;1.73;;
10343;SDS011;5217;43.960;10.954;2022-08-01T02:15:34;2.15;;;1.60;;
10343;SDS011;5217;43.960;10.954;2022-08-01T02:18:25;2.40;;;1.80;;
10343;SDS011;5217;43.960;10.954;2022-08-01T02:20:54;2.75;;;1.52;;
10343;SDS011;5217;43.960;10.954;2022-08-01T02:23:25;1.85;;;1.73;;
10343;SDS011;5217;43.960;10.954;2022-08-01T02:25:59;1.70;;;1.60;;
10343;SDS011;5217;43.960;10.954;2022-08-01T02:28:38;2.50;;;1.60;;
10343;SDS011;5217;43.960;10.954;2022-08-01T02:31:13;2.95;;;1.80;;
10343;SDS011;5217;43.960;10.954;2022-08-01T02:33:50;4.20;;;1.75;;
10343;SDS011;5217;43.960;10.954;2022-08-01T02:36:25;1.80;;;1.70;;
10343;SDS011;5217;43.960;10.954;2022-08-01T02:38:59;2.95;;;1.70;;
10343;SDS011;5217;43.960;10.954;2022-08-01T02:41:31;1.70;;;1.60;;
10343;SDS011;5217;43.960;10.954;2022-08-01T02:44:06;3.08;;;1.50;;
10343;SDS011;5217;43.960;10.954;2022-08-01T02:46:39;3.47;;;1.58;;
10343;SDS011;5217;43.960;10.954;2022-08-01T02:49:11;1.90;;;1.52;;
10343;SDS011;5217;43.960;10.954;2022-08-01T02:51:41;1.70;;;1.60;;
10343;SDS011;5217;43.960;10.954;2022-08-01T02:54:12;1.63;;;1.52;;
10343;SDS011;5217;43.960;10.954;2022-08-01T02:56:42;1.70;;;1.60;;
10343;SDS011;5217;43.960;10.954;2022-08-01T02:59:12;3.08;;;1.45;;
10343;SDS011;5217;43.960;10.954;2022-08-01T03:01:49;1.80;;;1.70;;
10343;SDS011;5217;43.960;10.954;2022-08-01T03:04:21;2.80;;;1.60;;
10343;SDS011;5217;43.960;10.954;2022-08-01T03:06:51;1.60;;;1.50;;
10343;SDS011;5217;43.960;10.954;2022-08-01T03:09:20;1.77;;;1.45;;
10343;SDS011;5217;43.960;10.954;2022-08-01T03:11:50;3.97;;;1.60;;
10343;SDS011;5217;43.960;10.954;2022-08-01T03:14:20;1.70;;;1.60;;
10343;SDS011;5217;43.960;10.954;2022-08-01T03:16:53;3.47;;;1.60;;
10343;SDS011;5217;43.960;10.954;2022-08-01T03:19:22;2.03;;;1.55;;
10343;SDS011;5217;43.960;10.954;2022-08-01T03:21:53;1.60;;;1.50;;
10343;SDS011;5217;43.960;10.954;2022-08-01T03:24:26;1.73;;;1.63;;
10343;SDS011;5217;43.960;10.954;2022-08-01T03:26:55;2.28;;;1.70;;
10343;SDS011;5217;43.960;10.954;2022-08-01T03:29:25;2.67;;;1.60;;
10343;SDS011;5217;43.960;10.954;2022-08-01T03:31:58;1.65;;;1.48;;
10343;SDS011;5217;43.960;10.954;2022-08-01T03:34:29;1.70;;;1.60;;
10343;SDS011;5217;43.960;10.954;2022-08-01T03:36:59;1.52;;;1.42;;
10343;SDS011;5217;43.960;10.954;2022-08-01T03:39:31;5.25;;;1.80;;
10343;SDS011;5217;43.960;10.954;2022-08-01T03:42:05;1.70;;;1.60;;
10343;SDS011;5217;43.960;10.954;2022-08-01T03:44:37;2.35;;;1.60;;
10343;SDS011;5217;43.960;10.954;2022-08-01T03:47:09;2.13;;;1.52;;
10343;SDS011;5217;43.960;10.954;2022-08-01T03:49:41;2.10;;;1.48;;
10343;SDS011;5217;43.960;10.954;2022-08-01T03:52:11;1.50;;;1.40;;
10343;SDS011;5217;43.960;10.954;2022-08-01T03:54:42;1.80;;;1.70;;
10343;SDS011;5217;43.960;10.954;2022-08-01T03:57:14;1.50;;;1.40;;
10343;SDS011;5217;43.960;10.954;2022-08-01T04:00:02;1.50;;;1.40;;
10343;SDS011;5217;43.960;10.954;2022-08-01T04:02:37;2.20;;;1.60;;
10343;SDS011;5217;43.960;10.954;2022-08-01T04:05:06;1.40;;;1.30;;
10343;SDS011;5217;43.960;10.954;2022-08-01T04:07:35;1.67;;;1.55;;
10343;SDS011;5217;43.960;10.954;2022-08-01T04:10:05;1.65;;;1.42;;
10343;SDS011;5217;43.960;10.954;2022-08-01T04:12:34;1.92;;;1.60;;
10343;SDS011;5217;43.960;10.954;2022-08-01T04:15:03;1.77;;;1.67;;
10343;SDS011;5217;43.960;10.954;2022-08-01T04:17:33;2.22;;;1.60;;
10343;SDS011;5217;43.960;10.954;2022-08-01T04:20:03;1.63;;;1.50;;
10343;SDS011;5217;43.960;10.954;2022-08-01T04:22:33;2.03;;;1.63;;
10343;SDS011;5217;43.960;10.954;2022-08-01T04:25:03;2.92;;;1.60;;
10343;SDS011;5217;43.960;10.954;2022-08-01T04:27:37;2.42;;;1.77;;
10343;SDS011;5217;43.960;10.954;2022-08-01T04:30:17;2.97;;;1.70;;
10343;SDS011;5217;43.960;10.954;2022-08-01T04:32:48;2.03;;;1.55;;
10343;SDS011;5217;43.960;10.954;2022-08-01T04:35:20;1.67;;;1.58;;
10343;SDS011;5217;43.960;10.954;2022-08-01T04:38:09;2.15;;;1.73;;
10343;SDS011;5217;43.960;10.954;2022-08-01T04:40:40;1.67;;;1.58;;
10343;SDS011;5217;43.960;10.954;2022-08-01T04:43:10;5.47;;;1.77;;
10343;SDS011;5217;43.960;10.954;2022-08-01T04:45:40;1.92;;;1.83;;
10343;SDS011;5217;43.960;10.954;2022-08-01T04:48:11;2.85;;;1.52;;
10343;SDS011;5217;43.960;10.954;2022-08-01T04:50:42;1.83;;;1.63;;
10343;SDS011;5217;43.960;10.954;2022-08-01T04:53:12;1.60;;;1.50;;
10343;SDS011;5217;43.960;10.954;2022-08-01T04:55:43;2.45;;;1.63;;
10343;SDS011;5217;43.960;10.954;2022-08-01T04:58:13;1.73;;;1.63;;
10343;SDS011;5217;43.960;10.954;2022-08-01T05:00:44;2.33;;;1.60;;
10343;SDS011;5217;43.960;10.954;2022-08-01T05:03:13;1.80;;;1.70;;
10343;SDS011;5217;43.960;10.954;2022-08-01T05:05:43;2.42;;;1.60;;
10343;SDS011;5217;43.960;10.954;2022-08-01T05:08:11;2.13;;;1.80;;
10343;SDS011;5217;43.960;10.954;2022-08-01T05:10:40;1.75;;;1.63;;
10343;SDS011;5217;43.960;10.954;2022-08-01T05:13:08;1.60;;;1.50;;
10343;SDS011;5217;43.960;10.954;2022-08-01T05:15:37;2.47;;;1.42;;
10343;SDS011;5217;43.960;10.954;2022-08-01T05:18:05;1.70;;;1.60;;
10343;SDS011;5217;43.960;10.954;2022-08-01T05:20:35;2.28;;;1.70;;
10343;SDS011;5217;43.960;10.954;2022-08-01T05:23:05;2.28;;;1.73;;
10343;SDS011;5217;43.960;10.954;2022-08-01T05:25:45;3.70;;;1.70;;
10343;SDS011;5217;43.960;10.954;2022-08-01T05:28:23;2.75;;;1.85;;
10343;SDS011;5217;43.960;10.954;2022-08-01T05:30:51;3.40;;;1.90;;
10343;SDS011;5217;43.960;10.954;2022-08-01T05:33:21;1.98;;;1.77;;
10343;SDS011;5217;43.960;10.954;2022-08-01T05:35:50;1.85;;;1.75;;
10343;SDS011;5217;43.960;10.954;2022-08-01T05:38:20;1.73;;;1.52;;
10343;SDS011;5217;43.960;10.954;2022-08-01T05:40:48;1.80;;;1.70;;
10343;SDS011;5217;43.960;10.954;2022-08-01T05:43:17;1.70;;;1.60;;
10343;SDS011;5217;43.960;10.954;2022-08-01T05:45:46;2.30;;;1.70;;
10343;SDS011;5217;43.960;10.954;2022-08-01T05:48:14;3.22;;;1.92;;
10343;SDS011;5217;43.960;10.954;2022-08-01T05:50:43;3.42;;;2.00;;
10343;SDS011;5217;43.960;10.954;2022-08-01T05:53:12;2.17;;;2.00;;
10343;SDS011;5217;43.960;10.954;2022-08-01T05:55:42;1.60;;;1.50;;
10343;SDS011;5217;43.960;10.954;2022-08-01T05:58:10;2.15;;;1.70;;
10343;SDS011;5217;43.960;10.954;2022-08-01T06:00:39;1.95;;;1.80;;
10343;SDS011;5217;43.960;10.954;2022-08-01T06:03:07;2.15;;;1.98;;
10343;SDS011;5217;43.960;10.954;2022-08-01T06:05:37;3.30;;;2.20;;
10343;SDS011;5217;43.960;10.954;2022-08-01T06:08:06;5.68;;;1.88;;
10343;SDS011;5217;43.960;10.954;2022-08-01T06:10:34;2.78;;;1.85;;
10343;SDS011;5217;43.960;10.954;2022-08-01T06:13:04;2.10;;;1.80;;
10343;SDS011;5217;43.960;10.954;2022-08-01T06:15:32;3.60;;;1.98;;
10343;SDS011;5217;43.960;10.954;2022-08-01T06:18:01;3.03;;;1.98;;
10343;SDS011;5217;43.960;10.954;2022-08-01T06:20:30;3.40;;;1.92;;
10343;SDS011;5217;43.960;10.954;2022-08-01T06:22:58;1.70;;;1.60;;
10343;SDS011;5217;43.960;10.954;2022-08-01T06:25:37;2.40;;;1.90;;
10343;SDS011;5217;43.960;10.954;2022-08-01T06:28:07;5.28;;;1.80;;
10343;SDS011;5217;43.960;10.954;2022-08-01T06:30:35;2.20;;;2.00;;
10343;SDS011;5217;43.960;10.954;2022-08-01T06:33:04;2.17;;;1.83;;
10343;SDS011;5217;43.960;10.954;2022-08-01T06:35:32;2.45;;;2.25;;
10343;SDS011;5217;43.960;10.954;2022-08-01T06:38:01;2.15;;;1.95;;
10343;SDS011;5217;43.960;10.954;2022-08-01T06:40:30;2.00;;;1.73;;
10343;SDS011;5217;43.960;10.954;2022-08-01T06:43:01;2.75;;;1.67;;
10343;SDS011;5217;43.960;10.954;2022-08-01T06:45:31;2.00;;;1.90;;
10343;SDS011;5217;43.960;10.954;2022-08-01T06:47:59;2.30;;;2.10;;
10343;SDS011;5217;43.960;10.954;2022-08-01T06:50:28;1.60;;;1.50;;
10343;SDS011;5217;43.960;10.954;2022-08-01T06:52:56;1.80;;;1.70;;
10343;SDS011;5217;43.960;10.954;2022-08-01T06:55:25;2.78;;;1.73;;
10343;SDS011;5217;43.960;10.954;2022-08-01T06:57:53;3.45;;;1.75;;
10343;SDS011;5217;43.960;10.954;2022-08-01T07:00:22;1.90;;;1.77;;
10343;SDS011;5217;43.960;10.954;2022-08-01T07:02:55;1.95;;;1.77;;
10343;SDS011;5217;43.960;10.954;2022-08-01T07:05:25;2.10;;;1.80;;
10343;SDS011;5217;43.960;10.954;2022-08-01T07:07:53;2.17;;;1.70;;
10343;SDS011;5217;43.960;10.954;2022-08-01T07:10:22;1.92;;;1.83;;
10343;SDS011;5217;43.960;10.954;2022-08-01T07:12:50;2.28;;;2.03;;
10343;SDS011;5217;43.960;10.954;2022-08-01T07:15:19;4.63;;;1.77;;
10343;SDS011;5217;43.960;10.954;2022-08-01T07:17:54;2.00;;;1.90;;
10343;SDS011;5217;43.960;10.954;2022-08-01T07:20:23;2.00;;;1.80;;
10343;SDS011;5217;43.960;10.954;2022-08-01T07:22:52;2.30;;;1.90;;
10343;SDS011;5217;43.960;10.954;2022-08-01T07:25:22;1.90;;;1.80;;
10343;SDS011;5217;43.960;10.954;2022-08-01T07:27:50;2.38;;;1.70;;
10343;SDS011;5217;43.960;10.954;2022-08-01T07:30:19;2.80;;;2.00;;
10343;SDS011;5217;43.960;10.954;2022-08-01T07:32:47;2.20;;;2.00;;
10343;SDS011;5217;43.960;10.954;2022-08-01T07:35:17;2.95;;;2.30;;
10343;SDS011;5217;43.960;10.954;2022-08-01T07:37:46;1.95;;;1.75;;
10343;SDS011;5217;43.960;10.954;2022-08-01T07:40:15;2.85;;;2.25;;
10343;SDS011;5217;43.960;10.954;2022-08-01T07:42:45;2.53;;;2.00;;
10343;SDS011;5217;43.960;10.954;2022-08-01T07:45:14;2.38;;;2.08;;
10343;SDS011;5217;43.960;10.954;2022-08-01T07:47:43;2.40;;;2.20;;
10343;SDS011;5217;43.960;10.954;2022-08-01T07:50:11;2.80;;;2.50;;
10343;SDS011;5217;43.960;10.954;2022-08-01T07:52:41;2.85;;;2.30;;
10343;SDS011;5217;43.960;10.954;2022-08-01T07:55:12;2.50;;;2.30;;
10343;SDS011;5217;43.960;10.954;2022-08-01T07:57:42;3.10;;;2.20;;
10343;SDS011;5217;43.960;10.954;2022-08-01T08:00:11;5.28;;;2.33;;
10343;SDS011;5217;43.960;10.954;2022-08-01T08:02:39;3.70;;;2.40;;
10343;SDS011;5217;43.960;10.954;2022-08-01T08:05:08;2.47;;;2.15;;
10343;SDS011;5217;43.960;10.954;2022-08-01T08:07:37;2.67;;;2.25;;
10343;SDS011;5217;43.960;10.954;2022-08-01T08:10:07;4.43;;;2.45;;
10343;SDS011;5217;43.960;10.954;2022-08-01T08:12:36;4.03;;;2.15;;
10343;SDS011;5217;43.960;10.954;2022-08-01T08:15:05;3.15;;;2.10;;
10343;SDS011;5217;43.960;10.954;2022-08-01T08:17:34;2.00;;;1.80;;
10343;SDS011;5217;43.960;10.954;2022-08-01T08:20:03;3.22;;;2.20;;
10343;SDS011;5217;43.960;10.954;2022-08-01T08:22:34;3.05;;;2.17;;
10343;SDS011;5217;43.960;10.954;2022-08-01T08:25:04;2.60;;;1.80;;
10343;SDS011;5217;43.960;10.954;2022-08-01T08:27:37;2.33;;;1.90;;
10343;SDS011;5217;43.960;10.954;2022-08-01T08:30:06;2.33;;;2.13;;
10343;SDS011;5217;43.960;10.954;2022-08-01T08:32:35;2.08;;;1.90;;
10343;SDS011;5217;43.960;10.954;2022-08-01T08:35:04;3.08;;;1.77;;
10343;SDS011;5217;43.960;10.954;2022-08-01T08:37:37;2.55;;;1.70;;
10343;SDS011;5217;43.960;10.954;2022-08-01T08:40:15;2.10;;;1.67;;
10343;SDS011;5217;43.960;10.954;2022-08-01T08:42:44;2.00;;;1.65;;
10343;SDS011;5217;43.960;10.954;2022-08-01T08:45:15;2.00;;;1.80;;
10343;SDS011;5217;43.960;10.954;2022-08-01T08:47:43;3.53;;;1.50;;
10343;SDS011;5217;43.960;10.954;2022-08-01T08:50:15;1.70;;;1.60;;
10343;SDS011;5217;43.960;10.954;2022-08-01T08:52:44;1.92;;;1.80;;
10343;SDS011;5217;43.960;10.954;2022-08-01T08:55:16;5.10;;;1.60;;
10343;SDS011;5217;43.960;10.954;2022-08-01T08:57:46;1.80;;;1.70;;
10343;SDS011;5217;43.960;10.954;2022-08-01T09:00:15;2.08;;;1.60;;
10343;SDS011;5217;43.960;10.954;2022-08-01T09:02:43;2.10;;;1.90;;
10343;SDS011;5217;43.960;10.954;2022-08-01T09:05:13;1.73;;;1.60;;
10343;SDS011;5217;43.960;10.954;2022-08-01T09:07:45;5.22;;;1.63;;
10343;SDS011;5217;43.960;10.954;2022-08-01T09:10:13;1.98;;;1.83;;
10343;SDS011;5217;43.960;10.954;2022-08-01T09:15:40;1.70;;;1.60;;
10343;SDS011;5217;43.960;10.954;2022-08-01T09:18:26;1.88;;;1.77;;
10343;SDS011;5217;43.960;10.954;2022-08-01T09:21:11;7.30;;;1.95;;
10343;SDS011;5217;43.960;10.954;2022-08-01T09:23:44;2.95;;;1.70;;
10343;SDS011;5217;43.960;10.954;2022-08-01T09:26:20;2.00;;;1.60;;
10343;SDS011;5217;43.960;10.954;2022-08-01T09:28:57;2.20;;;1.42;;
10343;SDS011;5217;43.960;10.954;2022-08-01T09:31:26;1.92;;;1.70;;
10343;SDS011;5217;43.960;10.954;2022-08-01T09:34:04;2.65;;;1.55;;
10343;SDS011;5217;43.960;10.954;2022-08-01T09:36:44;1.60;;;1.50;;
10343;SDS011;5217;43.960;10.954;2022-08-01T09:39:20;3.03;;;1.90;;
10343;SDS011;5217;43.960;10.954;2022-08-01T09:41:51;1.80;;;1.70;;
10343;SDS011;5217;43.960;10.954;2022-08-01T09:47:20;1.60;;;1.50;;
10343;SDS011;5217;43.960;10.954;2022-08-01T09:49:52;1.65;;;1.55;;
10343;SDS011;5217;43.960;10.954;2022-08-01T09:52:25;1.50;;;1.40;;
10343;SDS011;5217;43.960;10.954;2022-08-01T09:54:55;2.85;;;1.52;;
10343;SDS011;5217;43.960;10.954;2022-08-01T09:57:24;1.42;;;1.30;;
10343;SDS011;5217;43.960;10.954;2022-08-01T09:59:55;2.20;;;1.60;;
10343;SDS011;5217;43.960;10.954;2022-08-01T10:02:28;3.00;;;1.80;;
10343;SDS011;5217;43.960;10.954;2022-08-01T10:04:59;1.60;;;1.50;;
10343;SDS011;5217;43.960;10.954;2022-08-01T10:07:34;4.28;;;1.85;;
10343;SDS011;5217;43.960;10.954;2022-08-01T10:10:10;3.38;;;1.65;;
10343;SDS011;5217;43.960;10.954;2022-08-01T10:12:40;1.50;;;1.40;;
10343;SDS011;5217;43.960;10.954;2022-08-01T10:15:12;4.18;;;1.50;;
10343;SDS011;5217;43.960;10.954;2022-08-01T10:17:46;1.60;;;1.50;;
10343;SDS011;5217;43.960;10.954;2022-08-01T10:20:23;1.92;;;1.42;;
10343;SDS011;5217;43.960;10.954;2022-08-01T10:22:57;2.10;;;1.58;;
10343;SDS011;5217;43.960;10.954;2022-08-01T10:25:34;2.25;;;1.40;;
10343;SDS011;5217;43.960;10.954;2022-08-01T10:28:10;1.40;;;1.30;;
10343;SDS011;5217;43.960;10.954;2022-08-01T10:30:51;1.63;;;1.52;;
10343;SDS011;5217;43.960;10.954;2022-08-01T10:33:21;1.90;;;1.60;;
10343;SDS011;5217;43.960;10.954;2022-08-01T10:36:10;2.00;;;1.80;;
10343;SDS011;5217;43.960;10.954;2022-08-01T10:38:38;1.60;;;1.50;;
10343;SDS011;5217;43.960;10.954;2022-08-01T10:41:09;2.40;;;1.45;;
10343;SDS011;5217;43.960;10.954;2022-08-01T10:43:41;1.50;;;1.40;;
10343;SDS011;5217;43.960;10.954;2022-08-01T10:46:13;3.15;;;1.50;;
10343;SDS011;5217;43.960;10.954;2022-08-01T10:48:44;1.65;;;1.42;;
10343;SDS011;5217;43.960;10.954;2022-08-01T10:51:18;1.55;;;1.45;;
10343;SDS011;5217;43.960;10.954;2022-08-01T10:54:08;1.30;;;1.20;;
10343;SDS011;5217;43.960;10.954;2022-08-01T10:56:39;1.48;;;1.38;;
10343;SDS011;5217;43.960;10.954;2022-08-01T10:59:10;1.20;;;1.20;;
10343;SDS011;5217;43.960;10.954;2022-08-01T11:02:09;1.40;;;1.30;;
10343;SDS011;5217;43.960;10.954;2022-08-01T11:04:42;1.40;;;1.30;;
10343;SDS011;5217;43.960;10.954;2022-08-01T11:07:17;1.83;;;1.30;;
10343;SDS011;5217;43.960;10.954;2022-08-01T11:09:58;2.20;;;1.30;;
10343;SDS011;5217;43.960;10.954;2022-08-01T11:12:40;1.40;;;1.13;;
10343;SDS011;5217;43.960;10.954;2022-08-01T11:15:17;1.45;;;1.30;;
10343;SDS011;5217;43.960;10.954;2022-08-01T11:18:02;1.08;;;1.00;;
10343;SDS011;5217;43.960;10.954;2022-08-01T11:20:32;1.67;;;1.30;;
10343;SDS011;5217;43.960;10.954;2022-08-01T11:23:17;1.23;;;1.13;;
10343;SDS011;5217;43.960;10.954;2022-08-01T11:26:06;1.63;;;1.40;;
10343;SDS011;5217;43.960;10.954;2022-08-01T11:28:38;1.40;;;1.30;;
10343;SDS011;5217;43.960;10.954;2022-08-01T11:31:28;1.40;;;1.30;;
10343;SDS011;5217;43.960;10.954;2022-08-01T11:34:04;1.30;;;1.20;;
10343;SDS011;5217;43.960;10.954;2022-08-01T11:36:33;1.40;;;1.23;;
10343;SDS011;5217;43.960;10.954;2022-08-01T11:39:22;1.55;;;1.27;;
10343;SDS011;5217;43.960;10.954;2022-08-01T11:41:51;1.60;;;1.27;;
10343;SDS011;5217;43.960;10.954;2022-08-01T11:44:21;2.00;;;1.58;;
10343;SDS011;5217;43.960;10.954;2022-08-01T11:47:00;3.00;;;1.58;;
10343;SDS011;5217;43.960;10.954;2022-08-01T11:49:47;1.75;;;1.30;;
10343;SDS011;5217;43.960;10.954;2022-08-01T11:52:25;1.40;;;1.30;;
10343;SDS011;5217;43.960;10.954;2022-08-01T11:54:56;1.35;;;1.25;;
10343;SDS011;5217;43.960;10.954;2022-08-01T11:57:26;2.67;;;1.25;;
10343;SDS011;5217;43.960;10.954;2022-08-01T12:00:00;1.52;;;1.35;;
10343;SDS011;5217;43.960;10.954;2022-08-01T12:02:34;1.33;;;1.23;;
10343;SDS011;5217;43.960;10.954;2022-08-01T12:05:05;1.30;;;1.20;;
10343;SDS011;5217;43.960;10.954;2022-08-01T12:07:37;1.38;;;1.27;;
10343;SDS011;5217;43.960;10.954;2022-08-01T12:10:08;1.10;;;1.10;;
10343;SDS011;5217;43.960;10.954;2022-08-01T12:12:42;1.50;;;1.40;;
10343;SDS011;5217;43.960;10.954;2022-08-01T12:15:12;4.07;;;1.50;;
10343;SDS011;5217;43.960;10.954;2022-08-01T12:17:41;2.38;;;1.40;;
10343;SDS011;5217;43.960;10.954;2022-08-01T12:20:24;2.17;;;1.20;;
10343;SDS011;5217;43.960;10.954;2022-08-01T12:22:56;1.45;;;1.30;;
10343;SDS011;5217;43.960;10.954;2022-08-01T12:25:26;1.60;;;1.40;;
10343;SDS011;5217;43.960;10.954;2022-08-01T12:27:54;1.38;;;1.15;;
10343;SDS011;5217;43.960;10.954;2022-08-01T12:30:26;1.45;;;1.30;;
10343;SDS011;5217;43.960;10.954;2022-08-01T12:32:57;1.40;;;1.30;;
10343;SDS011;5217;43.960;10.954;2022-08-01T12:35:28;1.88;;;1.27;;
10343;SDS011;5217;43.960;10.954;2022-08-01T12:37:58;1.58;;;1.48;;
10343;SDS011;5217;43.960;10.954;2022-08-01T12:40:30;1.30;;;1.20;;
10343;SDS011;5217;43.960;10.954;2022-08-01T12:43:01;1.40;;;1.30;;
10343;SDS011;5217;43.960;10.954;2022-08-01T12:45:33;1.42;;;1.33;;
10343;SDS011;5217;43.960;10.954;2022-08-01T12:48:06;3.25;;;1.50;;
10343;SDS011;5217;43.960;10.954;2022-08-01T12:50:41;2.22;;;1.30;;
10343;SDS011;5217;43.960;10.954;2022-08-01T12:53:15;1.30;;;1.20;;
10343;SDS011;5217;43.960;10.954;2022-08-01T12:55:47;1.60;;;1.50;;
10343;SDS011;5217;43.960;10.954;2022-08-01T12:58:29;1.65;;;1.25;;
10343;SDS011;5217;43.960;10.954;2022-08-01T13:01:02;1.45;;;1.35;;
10343;SDS011;5217;43.960;10.954;2022-08-01T13:03:33;2.88;;;1.38;;
10343;SDS011;5217;43.960;10.954;2022-08-01T13:06:10;1.73;;;1.40;;
10343;SDS011;5217;43.960;10.954;2022-08-01T13:08:42;1.60;;;1.50;;
10343;SDS011;5217;43.960;10.954;2022-08-01T13:11:12;1.40;;;1.30;;
10343;SDS011;5217;43.960;10.954;2022-08-01T13:13:43;1.40;;;1.27;;
10343;SDS011;5217;43.960;10.954;2022-08-01T13:16:14;1.75;;;1.40;;
10343;SDS011;5217;43.960;10.954;2022-08-01T13:19:05;1.65;;;1.30;;
10343;SDS011;5217;43.960;10.954;2022-08-01T13:21:35;1.98;;;1.40;;
10343;SDS011;5217;43.960;10.954;2022-08-01T13:24:24;1.73;;;1.50;;
10343;SDS011;5217;43.960;10.954;2022-08-01T13:26:54;1.90;;;1.50;;
10343;SDS011;5217;43.960;10.954;2022-08-01T13:29:30;1.40;;;1.30;;
10343;SDS011;5217;43.960;10.954;2022-08-01T13:32:11;2.25;;;1.40;;
10343;SDS011;5217;43.960;10.954;2022-08-01T13:35:00;2.17;;;1.40;;
10343;SDS011;5217;43.960;10.954;2022-08-01T13:37:31;2.15;;;1.60;;
10343;SDS011;5217;43.960;10.954;2022-08-01T13:40:02;2.97;;;1.38;;
10343;SDS011;5217;43.960;10.954;2022-08-01T13:42:32;1.40;;;1.30;;
10343;SDS011;5217;43.960;10.954;2022-08-01T13:45:01;2.95;;;1.42;;
10343;SDS011;5217;43.960;10.954;2022-08-01T13:47:39;2.20;;;1.60;;
10343;SDS011;5217;43.960;10.954;2022-08-01T13:50:28;2.78;;;1.40;;
10343;SDS011;5217;43.960;10.954;2022-08-01T13:52:58;1.73;;;1.63;;
10343;SDS011;5217;43.960;10.954;2022-08-01T13:55:26;1.60;;;1.50;;
10343;SDS011;5217;43.960;10.954;2022-08-01T13:58:00;1.92;;;1.63;;
10343;SDS011;5217;43.960;10.954;2022-08-01T14:00:29;2.08;;;1.50;;
10343;SDS011;5217;43.960;10.954;2022-08-01T14:02:58;1.60;;;1.45;;
10343;SDS011;5217;43.960;10.954;2022-08-01T14:05:26;1.27;;;1.15;;
10343;SDS011;5217;43.960;10.954;2022-08-01T14:07:55;1.33;;;1.23;;
10343;SDS011;5217;43.960;10.954;2022-08-01T14:10:25;5.72;;;1.50;;
10343;SDS011;5217;43.960;10.954;2022-08-01T14:12:54;1.45;;;1.35;;
10343;SDS011;5217;43.960;10.954;2022-08-01T14:15:24;2.75;;;1.40;;
10343;SDS011;5217;43.960;10.954;2022-08-01T14:18:04;1.40;;;1.30;;
10343;SDS011;5217;43.960;10.954;2022-08-01T14:20:35;2.13;;;1.40;;
10343;SDS011;5217;43.960;10.954;2022-08-01T14:23:04;1.60;;;1.50;;
10343;SDS011;5217;43.960;10.954;2022-08-01T14:25:36;1.63;;;1.50;;
10343;SDS011;5217;43.960;10.954;2022-08-01T14:28:25;1.90;;;1.50;;
10343;SDS011;5217;43.960;10.954;2022-08-01T14:30:55;1.50;;;1.40;;
10343;SDS011;5217;43.960;10.954;2022-08-01T14:33:23;2.47;;;1.40;;
10343;SDS011;5217;43.960;10.954;2022-08-01T14:35:52;1.88;;;1.40;;
10343;SDS011;5217;43.960;10.954;2022-08-01T14:38:41;12.63;;;1.90;;
10343;SDS011;5217;43.960;10.954;2022-08-01T14:41:13;4.93;;;1.33;;
10343;SDS011;5217;43.960;10.954;2022-08-01T14:43:42;1.38;;;1.10;;
10343;SDS011;5217;43.960;10.954;2022-08-01T14:46:11;1.30;;;1.20;;
10343;SDS011;5217;43.960;10.954;2022-08-01T14:48:39;1.20;;;1.20;;
10343;SDS011;5217;43.960;10.954;2022-08-01T14:51:08;1.33;;;1.20;;
10343;SDS011;5217;43.960;10.954;2022-08-01T14:53:37;1.30;;;1.20;;
10343;SDS011;5217;43.960;10.954;2022-08-01T14:56:13;1.40;;;1.30;;
10343;SDS011;5217;43.960;10.954;2022-08-01T14:58:41;1.23;;;1.10;;
10343;SDS011;5217;43.960;10.954;2022-08-01T15:01:10;1.30;;;1.20;;
10343;SDS011;5217;43.960;10.954;2022-08-01T15:03:39;1.20;;;1.10;;
10343;SDS011;5217;43.960;10.954;2022-08-01T15:06:07;1.63;;;1.20;;
10343;SDS011;5217;43.960;10.954;2022-08-01T15:08:37;1.42;;;1.08;;
10343;SDS011;5217;43.960;10.954;2022-08-01T15:11:06;1.92;;;1.30;;
10343;SDS011;5217;43.960;10.954;2022-08-01T15:13:36;1.40;;;1.20;;
10343;SDS011;5217;43.960;10.954;2022-08-01T15:16:08;1.00;;;1.00;;
10343;SDS011;5217;43.960;10.954;2022-08-01T15:18:37;1.30;;;1.20;;
10343;SDS011;5217;43.960;10.954;2022-08-01T15:21:08;1.35;;;1.00;;
10343;SDS011;5217;43.960;10.954;2022-08-01T15:23:50;1.30;;;1.20;;